createdAt,value
2022-08-05T00:00:35.362Z,45.74
2022-08-05T00:03:15.798Z,45.92
2022-08-05T00:06:05.020Z,45.94
2022-08-05T00:08:34.607Z,45.85
2022-08-05T00:11:07.639Z,45.77
2022-08-05T00:13:53.209Z,46.31
2022-08-05T00:16:35.314Z,46.69
2022-08-05T00:19:05.310Z,47.21
2022-08-05T00:21:35.774Z,47.11
2022-08-05T00:24:10.546Z,47.00
2022-08-05T00:26:39.523Z,47.40
2022-08-05T00:29:19.042Z,46.83
2022-08-05T00:32:10.543Z,46.99
2022-08-05T00:34:56.409Z,47.41
2022-08-05T00:37:27.436Z,47.00
2022-08-05T00:40:17.731Z,46.77
2022-08-05T00:42:55.075Z,45.78
2022-08-05T00:45:28.307Z,44.08
2022-08-05T00:48:09.295Z,41.83
2022-08-05T00:50:38.775Z,41.79
2022-08-05T00:54:00.466Z,42.08
2022-08-05T00:55:59.302Z,42.29
2022-08-05T00:58:28.243Z,42.99
2022-08-05T01:00:56.506Z,43.14
2022-08-05T01:03:33.336Z,43.31
2022-08-05T01:06:05.393Z,43.51
2022-08-05T01:08:43.622Z,43.56
2022-08-05T01:11:33.276Z,43.18
2022-08-05T01:14:08.853Z,43.95
2022-08-05T01:16:52.313Z,43.84
2022-08-05T01:19:56.919Z,43.92
2022-08-05T01:22:41.579Z,44.25
2022-08-05T01:25:55.613Z,44.10
2022-08-05T01:28:39.406Z,44.16
2022-08-05T01:31:16.043Z,44.41
2022-08-05T01:33:55.479Z,44.05
2022-08-05T01:36:30.298Z,43.89
2022-08-05T01:39:00.950Z,44.31
2022-08-05T01:41:57.047Z,44.41
2022-08-05T01:47:22.332Z,44.06
2022-08-05T01:50:01.826Z,44.87
2022-08-05T01:52:32.580Z,45.02
2022-08-05T01:55:05.591Z,46.05
2022-08-05T01:58:10.810Z,45.66
2022-08-05T02:00:31.102Z,46.06
2022-08-05T02:03:06.103Z,46.31
2022-08-05T02:05:37.830Z,46.69
2022-08-05T02:08:10.792Z,46.22
2022-08-05T02:10:44.607Z,46.68
2022-08-05T02:13:17.466Z,46.54
2022-08-05T02:15:54.992Z,46.93
2022-08-05T02:18:35.201Z,47.35
2022-08-05T02:21:14.638Z,47.30
2022-08-05T02:23:47.431Z,47.24
2022-08-05T02:26:23.053Z,48.05
2022-08-05T02:28:58.273Z,48.29
2022-08-05T02:31:34.910Z,48.64
2022-08-05T02:34:09.212Z,49.04
2022-08-05T02:36:43.576Z,49.01
2022-08-05T02:39:13.926Z,48.96
2022-08-05T02:42:00.822Z,49.24
2022-08-05T02:44:31.351Z,49.27
2022-08-05T02:47:01.709Z,49.44
2022-08-05T02:49:36.614Z,49.55
2022-08-05T02:52:11.640Z,49.73
2022-08-05T02:54:50.738Z,49.98
2022-08-05T02:58:10.221Z,49.89
2022-08-05T03:00:13.247Z,50.14
2022-08-05T03:02:46.148Z,50.14
2022-08-05T03:05:16.508Z,50.10
2022-08-05T03:08:04.168Z,50.22
2022-08-05T03:10:33.254Z,50.44
2022-08-05T03:15:28.723Z,50.71
2022-08-05T03:17:59.498Z,50.57
2022-08-05T03:20:27.760Z,51.00
2022-08-05T03:22:57.462Z,51.48
2022-08-05T03:25:33.752Z,51.27
2022-08-05T03:28:18.670Z,51.32
2022-08-05T03:30:49.469Z,51.69
2022-08-05T03:33:19.874Z,51.39
2022-08-05T03:35:51.937Z,51.85
2022-08-05T03:38:23.860Z,52.02
2022-08-05T03:41:08.176Z,51.95
2022-08-05T03:44:08.756Z,52.42
2022-08-05T03:46:29.493Z,52.65
2022-08-05T03:48:59.511Z,52.56
2022-08-05T03:52:39.166Z,52.69
2022-08-05T03:56:01.058Z,52.61
2022-08-05T03:57:41.590Z,52.67
2022-08-05T04:00:15.838Z,52.60
2022-08-05T04:02:57.557Z,53.07
2022-08-05T04:05:34.447Z,52.85
2022-08-05T04:08:05.558Z,52.84
2022-08-05T04:10:38.290Z,53.03
2022-08-05T04:13:08.215Z,53.25
2022-08-05T04:15:36.819Z,53.01
2022-08-05T04:18:08.013Z,53.12
2022-08-05T04:20:41.363Z,52.80
2022-08-05T04:23:12.589Z,52.99
2022-08-05T04:25:57.461Z,52.72
2022-08-05T04:28:31.656Z,52.75
2022-08-05T04:31:01.622Z,52.77
2022-08-05T04:33:54.499Z,53.11
2022-08-05T04:36:45.845Z,52.72
2022-08-05T04:39:13.822Z,53.46
2022-08-05T04:41:41.994Z,53.48
2022-08-05T04:44:12.405Z,54.14
2022-08-05T04:46:40.996Z,53.81
2022-08-05T04:49:15.178Z,53.39
2022-08-05T04:51:45.504Z,53.78
2022-08-05T04:54:14.753Z,53.58
2022-08-05T04:56:43.856Z,53.39
2022-08-05T04:59:21.789Z,53.95
2022-08-05T05:02:07.946Z,54.00
2022-08-05T05:04:50.638Z,54.05
2022-08-05T05:07:29.239Z,53.90
2022-08-05T05:09:57.675Z,53.88
2022-08-05T05:12:27.552Z,53.91
2022-08-05T05:14:55.930Z,54.45
2022-08-05T05:17:55.901Z,54.10
2022-08-05T05:20:14.083Z,53.98
2022-08-05T05:22:44.061Z,54.01
2022-08-05T05:25:17.151Z,53.82
2022-08-05T05:27:48.576Z,53.71
2022-08-05T05:30:31.378Z,53.62
2022-08-05T05:33:15.843Z,53.87
2022-08-05T05:35:45.774Z,53.71
2022-08-05T05:38:26.880Z,53.67
2022-08-05T05:40:57.056Z,53.46
2022-08-05T05:43:54.613Z,53.75
2022-08-05T05:46:17.798Z,53.31
2022-08-05T05:48:50.125Z,53.34
2022-08-05T05:51:23.857Z,53.34
2022-08-05T05:53:58.873Z,53.36
2022-08-05T05:56:32.369Z,53.41
2022-08-05T05:59:05.702Z,53.56
2022-08-05T06:01:37.910Z,53.48
2022-08-05T06:04:12.039Z,53.42
2022-08-05T06:06:42.507Z,53.35
2022-08-05T06:09:17.024Z,53.35
2022-08-05T06:11:59.133Z,53.11
2022-08-05T06:14:28.978Z,52.80
2022-08-05T06:16:57.997Z,53.19
2022-08-05T06:19:34.683Z,54.10
2022-08-05T06:22:04.325Z,52.98
2022-08-05T06:24:37.193Z,51.73
2022-08-05T06:27:06.009Z,51.69
2022-08-05T06:29:53.280Z,51.57
2022-08-05T06:32:32.137Z,51.22
2022-08-05T06:35:05.840Z,50.35
2022-08-05T06:37:56.082Z,50.43
2022-08-05T06:40:27.673Z,50.35
2022-08-05T06:42:56.166Z,49.52
2022-08-05T06:45:45.008Z,48.58
2022-08-05T06:48:50.304Z,48.25
2022-08-05T06:51:00.778Z,48.47
2022-08-05T06:53:29.547Z,48.27
2022-08-05T06:56:03.262Z,48.42
2022-08-05T06:58:36.401Z,46.92
2022-08-05T07:01:07.007Z,46.15
2022-08-05T07:03:35.839Z,45.88
2022-08-05T07:06:06.137Z,45.00
2022-08-05T07:08:47.754Z,44.50
2022-08-05T07:11:22.259Z,44.86
2022-08-05T07:14:20.228Z,44.87
2022-08-05T07:18:08.749Z,43.93
2022-08-05T07:20:31.505Z,42.69
2022-08-05T07:22:30.180Z,43.16
2022-08-05T07:25:22.833Z,43.42
2022-08-05T07:27:58.658Z,44.15
2022-08-05T07:30:33.372Z,43.51
2022-08-05T07:33:05.149Z,43.42
2022-08-05T07:36:05.158Z,43.44
2022-08-05T07:38:33.312Z,43.41
2022-08-05T07:42:09.648Z,43.86
2022-08-05T07:43:57.126Z,44.31
2022-08-05T07:46:27.119Z,43.70
2022-08-05T07:49:02.363Z,43.92
2022-08-05T07:51:40.702Z,43.47
2022-08-05T07:54:18.751Z,43.73
2022-08-05T07:57:14.641Z,42.82
2022-08-05T07:59:39.910Z,44.12
2022-08-05T08:02:16.871Z,44.14
2022-08-05T08:04:48.667Z,43.97
2022-08-05T08:07:18.245Z,43.35
2022-08-05T08:09:52.304Z,43.40
2022-08-05T08:12:35.286Z,42.87
2022-08-05T08:15:15.093Z,42.09
2022-08-05T08:17:46.133Z,41.75
2022-08-05T08:20:43.477Z,42.39
2022-08-05T08:23:59.693Z,42.06
2022-08-05T08:26:00.560Z,41.45
2022-08-05T08:28:36.808Z,41.47
2022-08-05T08:31:07.773Z,41.99
2022-08-05T08:33:37.860Z,41.74
2022-08-05T08:36:38.691Z,41.29
2022-08-05T08:38:56.831Z,41.58
2022-08-05T08:41:52.115Z,41.98
2022-08-05T08:45:23.974Z,42.08
2022-08-05T08:47:47.014Z,40.81
2022-08-05T08:50:13.096Z,40.75
2022-08-05T08:52:53.844Z,41.22
2022-08-05T08:56:01.939Z,42.09
2022-08-05T08:58:16.146Z,42.35
2022-08-05T09:00:45.019Z,39.84
2022-08-05T09:03:19.173Z,40.54
2022-08-05T09:06:07.410Z,39.92
2022-08-05T09:08:40.421Z,40.82
2022-08-05T09:11:13.761Z,40.04
2022-08-05T09:14:00.879Z,39.59
2022-08-05T09:16:32.471Z,38.29
2022-08-05T09:19:01.953Z,37.87
2022-08-05T09:22:17.946Z,38.83
2022-08-05T09:24:24.275Z,38.48
2022-08-05T09:26:57.176Z,39.97
2022-08-05T09:29:47.774Z,39.15
2022-08-05T09:32:42.353Z,38.72
2022-08-05T09:35:26.732Z,39.35
2022-08-05T09:38:12.480Z,37.10
2022-08-05T09:40:52.459Z,38.38
2022-08-05T09:43:41.642Z,37.93
2022-08-05T09:46:28.350Z,36.72
2022-08-05T09:49:08.015Z,36.50
2022-08-05T09:51:50.070Z,37.42
2022-08-05T09:54:30.307Z,36.02
2022-08-05T09:57:01.154Z,36.51
2022-08-05T09:59:35.118Z,35.20
2022-08-05T10:02:06.176Z,36.02
2022-08-05T10:04:40.973Z,35.54
2022-08-05T10:07:20.929Z,36.35
2022-08-05T10:10:14.062Z,36.41
2022-08-05T10:12:49.990Z,36.17
2022-08-05T10:15:22.929Z,36.67
2022-08-05T10:18:08.873Z,37.29
2022-08-05T10:20:42.699Z,36.17
2022-08-05T10:23:34.140Z,35.62
2022-08-05T10:26:14.600Z,34.69
2022-08-05T10:28:45.008Z,34.36
2022-08-05T10:32:49.648Z,34.72
2022-08-05T10:34:06.936Z,34.26
2022-08-05T10:36:37.646Z,33.76
2022-08-05T10:39:24.999Z,34.23
2022-08-05T10:42:14.795Z,34.63
2022-08-05T10:44:47.517Z,34.87
2022-08-05T10:47:27.099Z,33.97
2022-08-05T10:50:32.424Z,34.64
2022-08-05T10:52:58.703Z,33.95
2022-08-05T10:55:30.464Z,33.84
2022-08-05T10:58:11.251Z,33.87
2022-08-05T11:00:46.530Z,33.41
2022-08-05T11:03:24.725Z,33.86
2022-08-05T11:06:08.303Z,32.41
2022-08-05T11:08:38.115Z,32.30
2022-08-05T11:11:44.592Z,31.48
2022-08-05T11:14:57.385Z,31.99
2022-08-05T11:17:57.566Z,32.42
2022-08-05T11:20:44.206Z,32.96
2022-08-05T11:24:05.225Z,32.78
2022-08-05T11:26:33.388Z,31.33
2022-08-05T11:29:13.930Z,30.97
2022-08-05T11:31:56.765Z,31.83
2022-08-05T11:34:51.875Z,31.77
2022-08-05T11:38:29.157Z,30.89
2022-08-05T11:41:35.146Z,30.81
2022-08-05T11:44:00.760Z,30.84
2022-08-05T11:47:09.807Z,31.58
2022-08-05T11:49:26.942Z,32.85
2022-08-05T11:51:57.602Z,31.28
2022-08-05T11:54:33.431Z,30.37
2022-08-05T11:57:08.627Z,30.47
2022-08-05T11:59:53.170Z,31.01
2022-08-05T12:02:30.718Z,31.63
2022-08-05T12:05:07.582Z,30.91
2022-08-05T12:08:07.860Z,30.36
2022-08-05T12:10:39.051Z,30.33
2022-08-05T12:13:27.839Z,30.46
2022-08-05T12:16:15.527Z,30.80
2022-08-05T12:18:49.033Z,30.91
2022-08-05T12:21:24.018Z,30.46
2022-08-05T12:24:04.519Z,30.73
2022-08-05T12:26:34.585Z,30.99
2022-08-05T12:29:03.309Z,31.51
2022-08-05T12:31:42.480Z,32.27
2022-08-05T12:34:20.730Z,31.53
2022-08-05T12:36:51.944Z,32.06
2022-08-05T12:39:20.427Z,31.03
2022-08-05T12:41:48.877Z,31.41
2022-08-05T12:44:28.711Z,31.30
2022-08-05T12:47:03.600Z,31.95
2022-08-05T12:50:04.198Z,32.28
2022-08-05T12:52:39.530Z,32.32
2022-08-05T12:55:23.831Z,32.20
2022-08-05T12:58:38.350Z,32.39
2022-08-05T13:01:59.953Z,33.02
2022-08-05T13:03:38.894Z,32.72
2022-08-05T13:06:16.038Z,32.17
2022-08-05T13:08:50.849Z,32.90
2022-08-05T13:11:25.504Z,32.86
2022-08-05T13:14:20.099Z,33.34
2022-08-05T13:16:56.676Z,33.80
2022-08-05T13:19:40.370Z,33.82
2022-08-05T13:22:29.248Z,34.09
2022-08-05T13:25:00.631Z,33.71
2022-08-05T13:27:38.266Z,34.01
2022-08-05T13:30:34.013Z,34.13
2022-08-05T13:33:01.598Z,34.08
2022-08-05T13:35:47.504Z,33.95
2022-08-05T13:38:31.009Z,33.90
2022-08-05T13:41:03.310Z,35.03
2022-08-05T13:43:44.366Z,34.93
2022-08-05T13:46:50.671Z,34.07
2022-08-05T13:49:10.312Z,34.42
2022-08-05T13:51:46.701Z,34.71
2022-08-05T13:54:21.126Z,34.10
2022-08-05T13:56:53.610Z,34.57
2022-08-05T13:59:24.022Z,34.87
2022-08-05T14:01:59.175Z,34.67
2022-08-05T14:04:50.559Z,34.50
2022-08-05T14:07:26.282Z,34.78
2022-08-05T14:10:28.373Z,35.30
2022-08-05T14:12:59.654Z,35.18
2022-08-05T14:16:08.320Z,35.29
2022-08-05T14:18:18.523Z,35.33
2022-08-05T14:20:54.395Z,35.35
2022-08-05T14:23:25.771Z,35.57
2022-08-05T14:25:58.047Z,35.89
2022-08-05T14:28:28.275Z,36.58
2022-08-05T14:30:56.415Z,36.32
2022-08-05T14:33:24.528Z,35.93
2022-08-05T14:35:54.566Z,35.08
2022-08-05T14:38:31.713Z,35.40
2022-08-05T14:41:06.408Z,36.13
2022-08-05T14:44:02.597Z,35.40
2022-08-05T14:46:28.980Z,36.50
2022-08-05T14:49:06.645Z,36.34
2022-08-05T14:51:37.606Z,36.06
2022-08-05T14:54:29.939Z,36.88
2022-08-05T14:56:57.181Z,37.62
2022-08-05T14:59:25.332Z,38.84
2022-08-05T15:01:58.376Z,39.22
2022-08-05T15:04:28.989Z,39.71
2022-08-05T15:06:57.535Z,39.96
2022-08-05T15:09:52.562Z,40.08
2022-08-05T15:12:16.789Z,40.64
2022-08-05T15:14:50.083Z,40.87
2022-08-05T15:17:46.436Z,40.23
2022-08-05T15:20:19.038Z,41.16
2022-08-05T15:22:54.354Z,41.27
2022-08-05T15:25:40.889Z,41.74
2022-08-05T15:28:15.819Z,41.55
2022-08-05T15:30:45.709Z,42.12
2022-08-05T15:34:05.979Z,43.05
2022-08-05T15:36:04.609Z,42.75
2022-08-05T15:38:40.945Z,42.81
2022-08-05T15:41:22.584Z,43.44
2022-08-05T15:43:55.179Z,42.63
2022-08-05T15:46:25.208Z,43.73
2022-08-05T15:49:01.194Z,43.84
2022-08-05T15:52:13.240Z,44.05
2022-08-05T15:54:37.342Z,43.32
2022-08-05T15:57:07.607Z,43.51
2022-08-05T15:59:38.026Z,43.73
2022-08-05T16:02:09.663Z,44.11
2022-08-05T16:04:44.110Z,44.78
2022-08-05T16:07:12.348Z,45.38
2022-08-05T16:09:42.064Z,44.81
2022-08-05T16:12:11.791Z,45.19
2022-08-05T16:14:42.025Z,44.23
2022-08-05T16:17:12.250Z,44.46
2022-08-05T16:20:03.084Z,44.65
2022-08-05T16:22:34.323Z,43.84
2022-08-05T16:25:09.345Z,43.74
2022-08-05T16:27:59.721Z,43.60
2022-08-05T16:30:29.271Z,43.41
2022-08-05T16:32:58.564Z,44.30
2022-08-05T16:35:32.175Z,43.50
2022-08-05T16:38:18.644Z,44.51
2022-08-05T16:40:54.926Z,43.82
2022-08-05T16:43:31.611Z,43.89
2022-08-05T16:46:23.567Z,43.97
2022-08-05T16:48:51.487Z,44.12
2022-08-05T16:51:19.532Z,44.56
2022-08-05T16:54:04.112Z,44.42
2022-08-05T16:56:41.807Z,45.15
2022-08-05T16:59:14.575Z,45.12
2022-08-05T17:01:53.630Z,44.93
2022-08-05T17:04:28.160Z,45.57
2022-08-05T17:07:00.919Z,45.38
2022-08-05T17:09:38.777Z,45.81
2022-08-05T17:12:50.202Z,46.03
2022-08-05T17:15:09.179Z,46.11
2022-08-05T17:17:42.412Z,46.57
2022-08-05T17:20:14.738Z,46.37
2022-08-05T17:22:44.948Z,46.78
2022-08-05T17:25:33.532Z,46.87
2022-08-05T17:28:01.473Z,46.39
2022-08-05T17:30:29.823Z,46.40
2022-08-05T17:32:59.182Z,46.08
2022-08-05T17:35:27.249Z,46.24
2022-08-05T17:38:04.892Z,47.21
2022-08-05T17:40:33.264Z,47.11
2022-08-05T17:43:01.890Z,48.01
2022-08-05T17:45:38.630Z,48.67
2022-08-05T17:48:08.797Z,49.18
2022-08-05T17:50:37.123Z,49.13
2022-08-05T17:53:08.641Z,49.57
2022-08-05T17:55:39.967Z,50.32
2022-08-05T17:58:14.418Z,49.99
2022-08-05T18:00:51.003Z,50.72
2022-08-05T18:03:59.271Z,50.85
2022-08-05T18:06:12.850Z,50.71
2022-08-05T18:08:46.209Z,50.96
2022-08-05T18:11:23.876Z,51.13
2022-08-05T18:13:54.830Z,51.35
2022-08-05T18:16:23.562Z,51.59
2022-08-05T18:18:52.958Z,51.67
2022-08-05T18:21:25.883Z,51.68
2022-08-05T18:23:54.666Z,51.80
2022-08-05T18:26:27.795Z,52.45
2022-08-05T18:28:58.305Z,52.02
2022-08-05T18:31:33.869Z,52.19
2022-08-05T18:34:05.756Z,52.07
2022-08-05T18:36:36.193Z,52.41
2022-08-05T18:39:05.864Z,53.16
2022-08-05T18:41:57.139Z,52.67
2022-08-05T18:44:34.858Z,52.60
2022-08-05T18:47:15.595Z,52.68
2022-08-05T18:52:55.271Z,52.52
2022-08-05T18:55:23.778Z,52.53
2022-08-05T18:57:53.934Z,52.67
2022-08-05T19:00:27.143Z,53.75
2022-08-05T19:03:04.197Z,53.24
2022-08-05T19:06:12.567Z,52.49
2022-08-05T19:08:30.491Z,50.81
2022-08-05T19:11:04.639Z,50.93
2022-08-05T19:13:36.078Z,49.97
2022-08-05T19:16:22.168Z,50.21
2022-08-05T19:18:56.833Z,50.68
2022-08-05T19:21:34.453Z,50.56
2022-08-05T19:24:08.912Z,50.68
2022-08-05T19:26:54.812Z,50.69
2022-08-05T19:29:35.547Z,50.58
2022-08-05T19:32:11.451Z,50.74
2022-08-05T19:34:40.381Z,51.29
2022-08-05T19:37:10.923Z,51.70
2022-08-05T19:39:45.639Z,51.74
2022-08-05T19:42:35.821Z,51.76
2022-08-05T19:45:06.072Z,51.48
2022-08-05T19:47:37.590Z,54.86
2022-08-05T19:50:10.569Z,57.43
2022-08-05T19:52:41.726Z,59.50
2022-08-05T19:56:14.496Z,61.14
2022-08-05T19:58:14.696Z,61.45
2022-08-05T20:00:48.059Z,61.40
2022-08-05T20:03:16.134Z,61.98
2022-08-05T20:05:51.253Z,61.97
2022-08-05T20:08:24.442Z,61.26
2022-08-05T20:10:53.042Z,61.95
2022-08-05T20:13:30.218Z,61.79
2022-08-05T20:16:10.169Z,61.89
2022-08-05T20:18:38.992Z,62.10
2022-08-05T20:21:08.425Z,62.25
2022-08-05T20:23:50.777Z,62.09
2022-08-05T20:26:20.297Z,61.58
2022-08-05T20:28:50.814Z,62.09
2022-08-05T20:31:21.934Z,61.80
2022-08-05T20:33:51.517Z,62.04
2022-08-05T20:36:24.059Z,62.59
2022-08-05T20:38:57.700Z,63.06
2022-08-05T20:41:43.430Z,62.83
2022-08-05T20:44:18.674Z,61.71
2022-08-05T20:46:57.991Z,61.80
2022-08-05T20:49:26.413Z,62.27
2022-08-05T20:51:54.854Z,62.25
2022-08-05T20:54:25.686Z,62.04
2022-08-05T20:57:14.436Z,62.23
2022-08-05T21:00:11.141Z,62.21
2022-08-05T21:02:30.846Z,61.81
2022-08-05T21:04:58.990Z,61.67
2022-08-05T21:07:50.826Z,61.34
2022-08-05T21:10:20.425Z,61.81
2022-08-05T21:12:57.754Z,61.69
2022-08-05T21:15:37.188Z,62.24
2022-08-05T21:18:05.656Z,61.68
2022-08-05T21:20:34.314Z,61.88
2022-08-05T21:23:03.062Z,63.06
2022-08-05T21:25:33.434Z,62.49
2022-08-05T21:28:03.441Z,62.17
2022-08-05T21:30:32.138Z,62.54
2022-08-05T21:33:01.687Z,61.80
2022-08-05T21:35:43.560Z,61.89
2022-08-05T21:38:23.337Z,62.02
2022-08-05T21:40:52.978Z,61.09
2022-08-05T21:43:24.510Z,60.52
2022-08-05T21:45:57.943Z,60.29
2022-08-05T21:48:29.400Z,60.04
2022-08-05T21:51:00.236Z,60.32
2022-08-05T21:53:28.347Z,59.75
2022-08-05T21:56:16.157Z,59.05
2022-08-05T21:58:56.871Z,59.40
2022-08-05T22:01:25.762Z,58.68
2022-08-05T22:03:54.177Z,58.17
2022-08-05T22:06:35.393Z,57.37
2022-08-05T22:09:13.695Z,57.66
2022-08-05T22:11:46.753Z,56.13
2022-08-05T22:14:33.412Z,56.21
2022-08-05T22:17:05.168Z,55.93
2022-08-05T22:20:01.266Z,54.83
2022-08-05T22:22:28.164Z,55.00
2022-08-05T22:25:21.248Z,55.17
2022-08-05T22:28:08.744Z,54.86
2022-08-05T22:30:55.931Z,54.07
2022-08-05T22:33:57.050Z,53.46
2022-08-05T22:36:15.629Z,52.15
2022-08-05T22:38:48.358Z,52.14
2022-08-05T22:42:05.471Z,53.02
2022-08-05T22:44:08.754Z,53.07
2022-08-05T22:46:39.413Z,53.74
2022-08-05T22:49:12.061Z,52.63
2022-08-05T22:52:06.101Z,52.56
2022-08-05T22:54:29.005Z,51.55
2022-08-05T22:56:57.130Z,50.56
2022-08-05T22:59:43.664Z,51.22
2022-08-05T23:02:16.885Z,50.12
2022-08-05T23:04:51.329Z,49.82
2022-08-05T23:07:21.684Z,50.53
2022-08-05T23:09:57.897Z,50.07
2022-08-05T23:12:32.843Z,49.65
2022-08-05T23:15:03.958Z,49.48
2022-08-05T23:18:00.785Z,49.44
2022-08-05T23:20:27.007Z,49.26
2022-08-05T23:22:56.286Z,50.10
2022-08-05T23:25:54.668Z,49.17
2022-08-05T23:28:15.884Z,48.49
2022-08-05T23:30:53.077Z,48.67
2022-08-05T23:34:02.791Z,48.50
2022-08-05T23:36:13.644Z,48.92
2022-08-05T23:38:43.423Z,48.69
2022-08-05T23:41:12.789Z,48.11
2022-08-05T23:44:06.428Z,49.10
2022-08-05T23:55:56.754Z,48.26
2022-08-05T23:58:32.300Z,48.34
